createdAt,value
2017-09-10T00:01:04.738Z,99.99
2017-09-10T00:02:04.786Z,99.99
2017-09-10T00:03:57.792Z,99.89
2017-09-10T00:04:57.827Z,99.99
2017-09-10T00:06:50.832Z,99.99
2017-09-10T00:07:50.873Z,99.99
2017-09-10T00:09:43.884Z,99.99
2017-09-10T00:10:43.924Z,99.99
2017-09-10T00:12:36.910Z,99.99
2017-09-10T00:13:36.985Z,99.99
2017-09-10T00:15:29.986Z,99.99
2017-09-10T00:16:30.028Z,99.99
2017-09-10T00:18:23.022Z,99.99
2017-09-10T00:19:23.081Z,99.99
2017-09-10T00:21:16.595Z,99.99
2017-09-10T00:22:16.636Z,99.99
2017-09-10T00:24:09.668Z,99.99
2017-09-10T00:25:09.683Z,99.99
2017-09-10T00:27:02.676Z,99.99
2017-09-10T00:28:02.733Z,99.70
2017-09-10T00:29:55.741Z,99.99
2017-09-10T00:30:55.783Z,99.99
2017-09-10T00:32:48.773Z,98.75
2017-09-10T00:33:48.830Z,99.41
2017-09-10T00:35:41.839Z,99.70
2017-09-10T00:36:41.880Z,99.99
2017-09-10T00:38:34.870Z,99.99
2017-09-10T00:39:34.928Z,99.99
2017-09-10T00:41:27.935Z,99.89
2017-09-10T00:42:27.981Z,99.99
2017-09-10T00:44:20.998Z,99.99
2017-09-10T00:45:21.027Z,99.99
2017-09-10T00:47:14.011Z,99.99
2017-09-10T00:48:14.070Z,99.99
2017-09-10T00:50:07.081Z,99.94
2017-09-10T00:51:07.123Z,99.94
2017-09-10T00:53:00.113Z,99.99
2017-09-10T00:54:00.174Z,99.99
2017-09-10T00:55:53.181Z,99.99
2017-09-10T00:56:53.223Z,99.99
2017-09-10T00:58:46.210Z,99.99
2017-09-10T00:59:46.269Z,99.99
2017-09-10T01:01:39.284Z,99.99
2017-09-10T01:02:39.323Z,99.99
2017-09-10T01:04:32.341Z,99.84
2017-09-10T01:05:32.369Z,99.99
2017-09-10T01:07:25.360Z,99.84
2017-09-10T01:08:25.416Z,99.27
2017-09-10T01:10:18.423Z,99.08
2017-09-10T01:11:18.463Z,99.27
2017-09-10T01:13:11.454Z,99.08
2017-09-10T01:14:11.512Z,99.94
2017-09-10T01:16:04.517Z,99.99
2017-09-10T01:17:04.559Z,99.99
2017-09-10T01:18:57.545Z,99.75
2017-09-10T01:19:57.607Z,99.65
2017-09-10T01:21:50.614Z,99.99
2017-09-10T01:22:50.655Z,99.65
2017-09-10T01:24:43.659Z,98.89
2017-09-10T01:25:43.700Z,98.79
2017-09-10T01:27:36.708Z,98.94
2017-09-10T01:28:36.750Z,98.70
2017-09-10T01:30:29.761Z,98.94
2017-09-10T01:31:29.799Z,99.13
2017-09-10T01:33:22.789Z,99.99
2017-09-10T01:34:22.851Z,99.99
2017-09-10T01:36:15.859Z,99.99
2017-09-10T01:37:15.899Z,99.99
2017-09-10T01:39:08.889Z,99.99
2017-09-10T01:40:08.949Z,99.99
2017-09-10T01:42:01.954Z,99.99
2017-09-10T01:43:01.991Z,99.99
2017-09-10T01:44:54.999Z,99.99
2017-09-10T01:45:55.038Z,99.99
2017-09-10T01:47:53.086Z,99.99
2017-09-10T01:48:48.106Z,99.99
2017-09-10T01:50:41.112Z,99.99
2017-09-10T01:51:41.153Z,99.99
2017-09-10T01:53:34.142Z,99.99
2017-09-10T01:54:34.201Z,99.99
2017-09-10T01:56:27.208Z,99.99
2017-09-10T01:57:27.248Z,99.99
2017-09-10T01:59:20.237Z,99.99
2017-09-10T02:00:20.299Z,99.99
2017-09-10T02:02:13.306Z,99.99
2017-09-10T02:03:13.347Z,99.99
2017-09-10T02:05:06.336Z,99.99
2017-09-10T02:06:06.394Z,99.99
2017-09-10T02:07:59.403Z,99.99
2017-09-10T02:08:59.443Z,99.99
2017-09-10T02:10:52.431Z,99.99
2017-09-10T02:11:52.492Z,99.99
2017-09-10T02:13:45.495Z,99.99
2017-09-10T02:14:45.536Z,99.99
2017-09-10T02:16:38.544Z,99.99
2017-09-10T02:17:38.583Z,99.99
2017-09-10T02:19:31.571Z,99.99
2017-09-10T02:20:31.629Z,99.99
2017-09-10T02:22:24.635Z,99.99
2017-09-10T02:23:24.673Z,99.99
2017-09-10T02:25:17.662Z,99.99
2017-09-10T02:26:17.722Z,99.99
2017-09-10T02:28:10.728Z,99.99
2017-09-10T02:29:10.770Z,99.99
2017-09-10T02:31:03.799Z,99.99
2017-09-10T02:32:03.816Z,99.99
2017-09-10T02:33:56.806Z,99.99
2017-09-10T02:34:56.865Z,99.99
2017-09-10T02:36:49.874Z,99.99
2017-09-10T02:37:49.914Z,99.99
2017-09-10T02:39:42.906Z,99.99
2017-09-10T02:40:42.959Z,99.99
2017-09-10T02:42:35.966Z,99.99
2017-09-10T02:43:36.006Z,99.99
2017-09-10T02:45:28.992Z,99.99
2017-09-10T02:46:29.052Z,99.99
2017-09-10T02:48:22.060Z,99.99
2017-09-10T02:49:22.100Z,99.99
2017-09-10T02:51:15.086Z,99.99
2017-09-10T02:52:15.147Z,99.99
2017-09-10T02:54:08.151Z,99.99
2017-09-10T02:55:08.194Z,99.99
2017-09-10T02:57:01.197Z,99.99
2017-09-10T02:58:01.268Z,99.99
2017-09-10T02:59:54.229Z,99.99
2017-09-10T03:00:54.286Z,99.99
2017-09-10T03:02:47.293Z,99.99
2017-09-10T03:03:47.332Z,99.99
2017-09-10T03:05:40.321Z,99.99
2017-09-10T03:06:40.384Z,99.99
2017-09-10T03:08:33.389Z,99.99
2017-09-10T03:09:33.428Z,99.99
2017-09-10T03:11:26.417Z,99.99
2017-09-10T03:12:26.476Z,99.99
2017-09-10T03:14:19.485Z,99.99
2017-09-10T03:15:19.522Z,99.99
2017-09-10T03:17:12.529Z,99.99
2017-09-10T03:18:12.570Z,99.99
2017-09-10T03:20:05.556Z,99.99
2017-09-10T03:21:05.614Z,99.99
2017-09-10T03:22:58.618Z,99.99
2017-09-10T03:23:58.667Z,99.99
2017-09-10T03:25:51.645Z,99.99
2017-09-10T03:26:51.704Z,99.99
2017-09-10T03:28:44.713Z,99.99
2017-09-10T03:29:44.751Z,99.99
2017-09-10T03:31:37.740Z,99.99
2017-09-10T03:32:37.800Z,99.99
2017-09-10T03:34:30.825Z,99.93
2017-09-10T03:35:30.865Z,99.84
2017-09-10T03:37:23.871Z,99.99
2017-09-10T03:38:23.911Z,99.84
2017-09-10T03:40:16.899Z,99.99
2017-09-10T03:41:16.957Z,99.99
2017-09-10T03:43:09.963Z,99.99
2017-09-10T03:44:10.004Z,99.99
2017-09-10T03:46:02.986Z,99.99
2017-09-10T03:47:03.048Z,99.99
2017-09-10T03:48:56.052Z,99.99
2017-09-10T03:49:56.097Z,99.99
2017-09-10T03:51:49.081Z,99.99
2017-09-10T03:52:49.136Z,99.99
2017-09-10T03:54:42.144Z,99.99
2017-09-10T03:55:42.182Z,99.99
2017-09-10T03:57:35.187Z,99.99
2017-09-10T03:58:35.227Z,99.99
2017-09-10T04:00:28.211Z,99.99
2017-09-10T04:01:28.271Z,99.99
2017-09-10T04:03:21.276Z,99.99
2017-09-10T04:04:21.316Z,99.99
2017-09-10T04:06:14.303Z,99.99
2017-09-10T04:07:14.359Z,99.99
2017-09-10T04:09:07.365Z,99.99
2017-09-10T04:10:07.412Z,99.99
2017-09-10T04:12:00.387Z,99.99
2017-09-10T04:13:00.446Z,99.99
2017-09-10T04:14:53.451Z,99.99
2017-09-10T04:15:53.492Z,99.99
2017-09-10T04:17:46.499Z,99.99
2017-09-10T04:18:46.538Z,99.99
2017-09-10T04:20:39.528Z,99.99
2017-09-10T04:21:39.589Z,99.99
2017-09-10T04:23:32.601Z,99.99
2017-09-10T04:24:32.641Z,99.99
2017-09-10T04:26:25.629Z,99.99
2017-09-10T04:27:25.689Z,99.99
2017-09-10T04:29:18.698Z,99.99
2017-09-10T04:30:18.741Z,99.99
2017-09-10T04:32:11.724Z,99.99
2017-09-10T04:33:11.781Z,99.99
2017-09-10T04:35:04.788Z,99.99
2017-09-10T04:36:04.828Z,99.99
2017-09-10T04:37:57.832Z,99.99
2017-09-10T04:38:57.874Z,99.74
2017-09-10T04:40:50.860Z,99.99
2017-09-10T04:41:50.918Z,99.84
2017-09-10T04:43:43.923Z,99.99
2017-09-10T04:44:43.962Z,99.99
2017-09-10T04:46:36.948Z,99.55
2017-09-10T04:47:37.005Z,99.93
2017-09-10T04:49:30.016Z,99.99
2017-09-10T04:50:30.055Z,99.99
2017-09-10T04:52:23.044Z,99.99
2017-09-10T04:53:23.103Z,99.99
2017-09-10T04:55:16.109Z,99.99
2017-09-10T04:56:16.149Z,99.99
2017-09-10T04:58:09.154Z,99.99
2017-09-10T04:59:09.198Z,99.99
2017-09-10T05:01:02.180Z,99.99
2017-09-10T05:02:02.241Z,99.99
2017-09-10T05:03:55.246Z,99.99
2017-09-10T05:04:55.287Z,99.99
2017-09-10T05:06:48.275Z,99.99
2017-09-10T05:07:48.331Z,99.99
2017-09-10T05:09:41.336Z,99.99
2017-09-10T05:10:41.376Z,99.99
2017-09-10T05:12:34.364Z,99.99
2017-09-10T05:13:34.419Z,99.99
2017-09-10T05:15:27.431Z,99.99
2017-09-10T05:16:27.471Z,99.99
2017-09-10T05:18:20.482Z,99.99
2017-09-10T05:19:20.531Z,99.99
2017-09-10T05:21:14.020Z,99.99
2017-09-10T05:22:14.073Z,99.99
2017-09-10T05:24:08.579Z,99.99
2017-09-10T05:25:08.620Z,99.99
2017-09-10T05:27:01.608Z,99.99
2017-09-10T05:28:01.664Z,99.99
2017-09-10T05:29:54.705Z,99.99
2017-09-10T05:30:54.711Z,99.99
2017-09-10T05:32:47.699Z,99.99
2017-09-10T05:33:47.759Z,99.99
2017-09-10T05:35:40.765Z,99.99
2017-09-10T05:36:40.804Z,99.99
2017-09-10T05:38:33.813Z,99.99
2017-09-10T05:39:33.858Z,99.99
2017-09-10T05:41:26.837Z,99.69
2017-09-10T05:42:26.899Z,99.89
2017-09-10T05:44:19.909Z,99.51
2017-09-10T05:45:19.947Z,98.65
2017-09-10T05:47:12.934Z,98.65
2017-09-10T05:48:12.992Z,99.13
2017-09-10T05:50:05.998Z,99.22
2017-09-10T05:51:06.036Z,98.84
2017-09-10T05:52:59.024Z,98.74
2017-09-10T05:53:59.081Z,99.03
2017-09-10T05:55:52.085Z,97.89
2017-09-10T05:56:52.127Z,97.99
2017-09-10T05:58:45.132Z,98.03
2017-09-10T05:59:45.172Z,97.56
2017-09-10T06:01:38.164Z,97.46
2017-09-10T06:02:38.225Z,97.94
2017-09-10T06:04:31.231Z,97.46
2017-09-10T06:05:31.272Z,97.36
2017-09-10T06:07:24.420Z,97.56
2017-09-10T06:08:24.321Z,97.27
2017-09-10T06:10:17.327Z,97.36
2017-09-10T06:11:17.367Z,97.17
2017-09-10T06:13:10.354Z,97.17
2017-09-10T06:14:10.414Z,96.84
2017-09-10T06:16:03.422Z,97.13
2017-09-10T06:17:03.462Z,97.03
2017-09-10T06:18:56.475Z,96.65
2017-09-10T06:19:56.515Z,96.27
2017-09-10T06:21:50.049Z,96.13
2017-09-10T06:22:50.106Z,96.80
2017-09-10T06:24:43.113Z,97.85
2017-09-10T06:25:43.154Z,97.94
2017-09-10T06:27:36.149Z,97.32
2017-09-10T06:28:36.215Z,96.56
2017-09-10T06:30:29.208Z,96.27
2017-09-10T06:31:29.248Z,95.65
2017-09-10T06:33:22.238Z,94.31
2017-09-10T06:34:22.299Z,93.88
2017-09-10T06:36:15.309Z,92.11
2017-09-10T06:37:15.347Z,90.78
2017-09-10T06:39:08.356Z,88.29
2017-09-10T06:40:08.398Z,86.70
2017-09-10T06:42:01.390Z,83.25
2017-09-10T06:43:01.452Z,82.32
2017-09-10T06:44:54.475Z,80.07
2017-09-10T06:45:54.510Z,79.11
2017-09-10T06:47:47.494Z,78.19
2017-09-10T06:48:47.557Z,75.73
2017-09-10T06:50:40.573Z,74.08
2017-09-10T06:51:40.622Z,73.50
2017-09-10T06:53:33.627Z,72.92
2017-09-10T06:54:33.675Z,72.34
2017-09-10T06:56:26.692Z,69.85
2017-09-10T06:57:26.732Z,67.87
2017-09-10T06:59:19.747Z,65.43
2017-09-10T07:00:19.792Z,65.11
2017-09-10T07:02:12.787Z,65.20
2017-09-10T07:03:12.854Z,65.81
2017-09-10T07:05:05.889Z,64.56
2017-09-10T07:06:05.915Z,63.95
2017-09-10T07:07:58.913Z,65.85
2017-09-10T07:08:58.978Z,64.47
2017-09-10T07:10:51.999Z,61.22
2017-09-10T07:11:52.043Z,60.48
2017-09-10T07:13:45.042Z,61.22
2017-09-10T07:14:45.108Z,61.13
2017-09-10T07:16:38.130Z,62.12
2017-09-10T07:17:38.176Z,59.83
2017-09-10T07:19:31.201Z,57.41
2017-09-10T07:20:31.245Z,56.45
2017-09-10T07:22:24.248Z,57.64
2017-09-10T07:23:24.318Z,57.06
2017-09-10T07:25:17.336Z,56.90
2017-09-10T07:26:17.383Z,55.74
2017-09-10T07:28:10.390Z,58.03
2017-09-10T07:29:10.457Z,56.90
2017-09-10T07:31:03.556Z,56.09
2017-09-10T07:32:03.528Z,55.05
2017-09-10T07:33:56.531Z,55.16
2017-09-10T07:34:56.600Z,54.05
2017-09-10T07:36:49.628Z,56.13
2017-09-10T07:37:49.711Z,55.96
2017-09-10T07:39:42.699Z,56.13
2017-09-10T07:40:42.749Z,56.72
2017-09-10T07:42:35.752Z,65.05
2017-09-10T07:43:35.836Z,63.44
2017-09-10T07:45:28.852Z,58.42
2017-09-10T07:46:28.899Z,56.90
2017-09-10T07:48:21.902Z,55.05
2017-09-10T07:49:21.971Z,55.74
2017-09-10T07:51:15.100Z,55.96
2017-09-10T07:52:15.046Z,55.83
2017-09-10T07:54:08.047Z,55.93
2017-09-10T07:55:08.118Z,58.36
2017-09-10T07:57:01.146Z,57.57
2017-09-10T07:58:01.194Z,56.13
2017-09-10T07:59:54.221Z,58.36
2017-09-10T08:00:54.277Z,57.81
2017-09-10T08:02:47.276Z,55.19
2017-09-10T08:03:47.346Z,54.27
2017-09-10T08:05:40.373Z,55.09
2017-09-10T08:06:40.427Z,56.74
2017-09-10T08:08:33.429Z,63.54
2017-09-10T08:09:33.499Z,64.08
2017-09-10T08:11:26.527Z,63.70
2017-09-10T08:12:26.578Z,63.50
2017-09-10T08:14:19.584Z,64.40
2017-09-10T08:15:19.652Z,63.47
2017-09-10T08:17:12.678Z,67.00
2017-09-10T08:18:12.728Z,70.29
2017-09-10T08:20:05.757Z,66.58
2017-09-10T08:21:05.811Z,65.53
2017-09-10T08:22:58.810Z,61.96
2017-09-10T08:23:58.878Z,65.40
2017-09-10T08:25:51.900Z,69.18
2017-09-10T08:26:51.949Z,67.35
2017-09-10T08:28:44.952Z,69.40
2017-09-10T08:29:45.019Z,70.87
2017-09-10T08:31:38.053Z,71.61
2017-09-10T08:32:38.094Z,73.58
2017-09-10T08:34:31.096Z,76.71
2017-09-10T08:35:31.161Z,77.09
2017-09-10T08:37:24.185Z,72.16
2017-09-10T08:38:24.234Z,72.63
2017-09-10T08:40:17.261Z,75.79
2017-09-10T08:41:17.311Z,76.07
2017-09-10T08:43:10.306Z,76.07
2017-09-10T08:44:10.370Z,76.37
2017-09-10T08:46:03.392Z,77.48
2017-09-10T08:47:03.436Z,76.25
2017-09-10T08:48:56.432Z,73.69
2017-09-10T08:49:56.497Z,67.97
2017-09-10T08:51:49.517Z,60.25
2017-09-10T08:52:49.561Z,57.77
2017-09-10T08:54:42.561Z,62.15
2017-09-10T08:55:42.633Z,61.16
2017-09-10T08:57:35.650Z,59.22
2017-09-10T08:58:35.696Z,56.25
2017-09-10T09:00:28.720Z,62.12
2017-09-10T09:01:28.768Z,67.19
2017-09-10T09:03:21.769Z,71.16
2017-09-10T09:04:21.838Z,70.23
2017-09-10T09:06:14.857Z,70.87
2017-09-10T09:07:14.905Z,71.35
2017-09-10T09:09:07.912Z,73.08
2017-09-10T09:10:07.983Z,73.18
2017-09-10T09:12:00.992Z,73.27
2017-09-10T09:13:01.041Z,73.91
2017-09-10T09:14:54.038Z,75.38
2017-09-10T09:15:54.102Z,74.90
2017-09-10T09:17:47.161Z,73.75
2017-09-10T09:18:47.167Z,73.56
2017-09-10T09:20:40.185Z,74.52
2017-09-10T09:21:40.230Z,73.27
2017-09-10T09:23:33.230Z,71.67
2017-09-10T09:24:33.293Z,72.44
2017-09-10T09:26:26.309Z,72.06
2017-09-10T09:27:26.354Z,71.35
2017-09-10T09:29:19.389Z,72.06
2017-09-10T09:30:19.415Z,71.39
2017-09-10T09:32:12.432Z,71.25
2017-09-10T09:33:12.478Z,70.72
2017-09-10T09:35:05.474Z,69.12
2017-09-10T09:36:05.537Z,68.06
2017-09-10T09:37:58.552Z,68.92
2017-09-10T09:38:58.598Z,69.60
2017-09-10T09:40:51.618Z,67.51
2017-09-10T09:41:51.661Z,67.42
2017-09-10T09:43:44.659Z,64.98
2017-09-10T09:44:44.724Z,66.04
2017-09-10T09:46:37.743Z,66.81
2017-09-10T09:47:37.790Z,66.33
2017-09-10T09:49:30.786Z,67.86
2017-09-10T09:50:30.853Z,67.58
2017-09-10T09:52:23.869Z,66.52
2017-09-10T09:53:23.917Z,66.71
2017-09-10T09:55:16.915Z,67.77
2017-09-10T09:56:16.983Z,67.68
2017-09-10T09:58:10.007Z,67.83
2017-09-10T09:59:10.047Z,68.12
2017-09-10T10:01:03.065Z,67.32
2017-09-10T10:02:03.115Z,67.90
2017-09-10T10:03:56.108Z,69.30
2017-09-10T10:04:56.173Z,70.17
2017-09-10T10:06:49.191Z,70.64
2017-09-10T10:07:49.237Z,71.35
2017-09-10T10:09:42.237Z,70.10
2017-09-10T10:10:42.297Z,68.85
2017-09-10T10:12:35.314Z,68.85
2017-09-10T10:13:35.381Z,68.34
2017-09-10T10:15:28.370Z,69.40
2017-09-10T10:16:28.422Z,68.73
2017-09-10T10:18:21.436Z,69.53
2017-09-10T10:19:21.481Z,68.95
2017-09-10T10:21:15.006Z,67.90
2017-09-10T10:22:15.049Z,68.08
2017-09-10T10:24:08.048Z,68.60
2017-09-10T10:25:08.113Z,66.39
2017-09-10T10:27:01.143Z,64.56
2017-09-10T10:28:01.185Z,64.43
2017-09-10T10:29:54.180Z,66.16
2017-09-10T10:30:54.245Z,66.33
2017-09-10T10:32:47.263Z,67.57
2017-09-10T10:33:47.308Z,67.67
2017-09-10T10:35:40.306Z,68.73
2017-09-10T10:36:40.374Z,68.82
2017-09-10T10:38:33.393Z,67.70
2017-09-10T10:39:33.436Z,67.51
2017-09-10T10:41:26.452Z,67.32
2017-09-10T10:42:26.499Z,67.76
2017-09-10T10:44:19.508Z,68.34
2017-09-10T10:45:19.559Z,69.01
2017-09-10T10:47:12.579Z,67.70
2017-09-10T10:48:12.665Z,67.80
2017-09-10T10:50:05.620Z,67.93
2017-09-10T10:51:05.686Z,68.98
2017-09-10T10:52:58.706Z,67.54
2017-09-10T10:53:58.747Z,67.35
2017-09-10T10:55:51.757Z,66.81
2017-09-10T10:56:51.823Z,64.85
2017-09-10T10:58:44.844Z,67.86
2017-09-10T10:59:44.890Z,66.71
2017-09-10T11:01:37.908Z,66.42
2017-09-10T11:02:37.950Z,66.61
2017-09-10T11:04:30.946Z,65.27
2017-09-10T11:05:31.009Z,66.04
2017-09-10T11:07:24.042Z,64.43
2017-09-10T11:08:24.072Z,63.06
2017-09-10T11:10:17.067Z,63.41
2017-09-10T11:11:17.132Z,63.67
2017-09-10T11:13:10.152Z,64.05
2017-09-10T11:14:10.198Z,64.72
2017-09-10T11:16:03.192Z,64.50
2017-09-10T11:17:03.256Z,64.98
2017-09-10T11:18:56.270Z,65.78
2017-09-10T11:19:56.317Z,65.20
2017-09-10T11:21:49.843Z,65.11
2017-09-10T11:22:49.900Z,64.92
2017-09-10T11:24:42.878Z,66.30
2017-09-10T11:25:42.943Z,66.20
2017-09-10T11:27:35.982Z,64.76
2017-09-10T11:28:36.021Z,63.79
2017-09-10T11:30:29.020Z,66.10
2017-09-10T11:31:29.079Z,65.17
2017-09-10T11:33:22.093Z,64.60
2017-09-10T11:34:22.138Z,63.18
2017-09-10T11:36:15.140Z,64.22
2017-09-10T11:37:15.234Z,64.60
2017-09-10T11:39:08.240Z,63.64
2017-09-10T11:40:08.284Z,64.02
2017-09-10T11:42:01.300Z,65.46
2017-09-10T11:43:01.345Z,65.08
2017-09-10T11:44:54.339Z,64.12
2017-09-10T11:45:54.405Z,64.43
2017-09-10T11:47:47.422Z,64.43
2017-09-10T11:48:47.467Z,63.67
2017-09-10T11:50:40.463Z,63.28
2017-09-10T11:51:40.529Z,64.43
2017-09-10T11:53:33.544Z,61.49
2017-09-10T11:54:33.592Z,62.83
2017-09-10T11:56:26.587Z,62.32
2017-09-10T11:57:26.652Z,63.70
2017-09-10T11:59:19.670Z,60.39
2017-09-10T12:00:19.715Z,59.63
2017-09-10T12:02:12.731Z,61.07
2017-09-10T12:03:12.780Z,60.30
2017-09-10T12:05:05.774Z,60.69
2017-09-10T12:06:05.842Z,60.49
2017-09-10T12:07:58.865Z,60.37
2017-09-10T12:08:58.911Z,61.14
2017-09-10T12:10:51.915Z,61.91
2017-09-10T12:11:51.980Z,61.65
2017-09-10T12:13:45.008Z,61.52
2017-09-10T12:14:45.052Z,60.37
2017-09-10T12:16:38.054Z,60.72
2017-09-10T12:17:38.120Z,61.11
2017-09-10T12:19:31.139Z,61.58
2017-09-10T12:20:31.185Z,62.26
2017-09-10T12:22:24.202Z,62.84
2017-09-10T12:23:24.248Z,62.74
2017-09-10T12:25:17.243Z,62.74
2017-09-10T12:26:17.309Z,63.02
2017-09-10T12:28:10.326Z,63.64
2017-09-10T12:29:10.370Z,62.58
2017-09-10T12:31:03.369Z,63.15
2017-09-10T12:32:03.437Z,62.90
2017-09-10T12:33:56.449Z,62.96
2017-09-10T12:34:56.496Z,62.19
2017-09-10T12:36:49.492Z,63.45
2017-09-10T12:37:49.561Z,63.32
2017-09-10T12:39:42.577Z,63.12
2017-09-10T12:40:42.622Z,64.66
2017-09-10T12:42:35.637Z,64.66
2017-09-10T12:43:35.685Z,64.15
2017-09-10T12:45:28.681Z,64.72
2017-09-10T12:46:28.745Z,64.18
2017-09-10T12:48:21.768Z,64.09
2017-09-10T12:49:21.808Z,64.47
2017-09-10T12:51:14.802Z,64.85
2017-09-10T12:52:14.867Z,65.08
2017-09-10T12:54:07.883Z,65.08
2017-09-10T12:55:07.932Z,64.02
2017-09-10T12:57:00.925Z,63.73
2017-09-10T12:58:00.990Z,63.83
2017-09-10T12:59:54.007Z,64.31
2017-09-10T13:00:54.052Z,63.89
2017-09-10T13:02:47.082Z,64.18
2017-09-10T13:03:47.116Z,64.85
2017-09-10T13:05:40.112Z,64.85
2017-09-10T13:06:40.179Z,64.85
2017-09-10T13:08:33.201Z,65.23
2017-09-10T13:09:33.238Z,64.92
2017-09-10T13:11:26.235Z,65.20
2017-09-10T13:12:26.299Z,64.72
2017-09-10T13:14:19.315Z,65.66
2017-09-10T13:15:19.360Z,64.31
2017-09-10T13:17:12.356Z,63.57
2017-09-10T13:18:12.420Z,62.96
2017-09-10T13:20:05.438Z,63.12
2017-09-10T13:21:05.479Z,64.28
2017-09-10T13:22:58.495Z,63.89
2017-09-10T13:23:58.543Z,64.76
2017-09-10T13:25:51.542Z,64.76
2017-09-10T13:26:51.607Z,65.05
2017-09-10T13:28:44.622Z,65.14
2017-09-10T13:29:44.668Z,64.22
2017-09-10T13:31:37.662Z,64.31
2017-09-10T13:32:37.728Z,64.02
2017-09-10T13:34:30.743Z,63.25
2017-09-10T13:35:30.788Z,63.83
2017-09-10T13:37:23.781Z,63.95
2017-09-10T13:38:23.846Z,62.99
2017-09-10T13:40:17.373Z,63.70
2017-09-10T13:41:17.415Z,62.71
2017-09-10T13:43:10.433Z,61.74
2017-09-10T13:44:10.478Z,62.77
2017-09-10T13:46:03.473Z,64.40
2017-09-10T13:47:03.559Z,63.38
2017-09-10T13:48:56.554Z,64.05
2017-09-10T13:49:56.600Z,63.18
2017-09-10T13:51:49.598Z,62.51
2017-09-10T13:52:49.663Z,62.03
2017-09-10T13:54:42.677Z,62.58
2017-09-10T13:55:42.722Z,63.18
2017-09-10T13:57:35.718Z,63.15
2017-09-10T13:58:35.785Z,63.06
2017-09-10T14:00:28.801Z,64.31
2017-09-10T14:01:28.846Z,64.79
2017-09-10T14:03:21.844Z,64.22
2017-09-10T14:04:21.906Z,63.48
2017-09-10T14:06:14.927Z,63.18
2017-09-10T14:07:14.972Z,61.58
2017-09-10T14:09:07.974Z,61.84
2017-09-10T14:10:08.039Z,61.68
2017-09-10T14:12:01.058Z,61.84
2017-09-10T14:13:01.101Z,61.55
2017-09-10T14:14:54.119Z,61.91
2017-09-10T14:15:54.167Z,62.19
2017-09-10T14:17:47.162Z,63.15
2017-09-10T14:18:47.228Z,64.43
2017-09-10T14:20:40.249Z,62.99
2017-09-10T14:21:40.295Z,64.02
2017-09-10T14:23:33.298Z,63.35
2017-09-10T14:24:33.358Z,62.38
2017-09-10T14:26:26.378Z,61.91
2017-09-10T14:27:26.426Z,62.19
2017-09-10T14:29:19.421Z,63.57
2017-09-10T14:30:19.487Z,63.35
2017-09-10T14:32:12.503Z,63.06
2017-09-10T14:33:12.548Z,63.15
2017-09-10T14:35:05.569Z,63.15
2017-09-10T14:36:05.613Z,63.45
2017-09-10T14:37:58.607Z,63.45
2017-09-10T14:38:58.673Z,63.06
2017-09-10T14:40:53.201Z,63.15
2017-09-10T14:41:53.246Z,64.02
2017-09-10T14:43:46.240Z,63.89
2017-09-10T14:44:46.310Z,64.18
2017-09-10T14:46:39.321Z,64.09
2017-09-10T14:47:39.366Z,63.51
2017-09-10T14:49:32.362Z,64.12
2017-09-10T14:50:32.428Z,63.92
2017-09-10T14:52:25.443Z,63.35
2017-09-10T14:53:25.488Z,63.25
2017-09-10T14:55:18.502Z,63.64
2017-09-10T14:56:18.549Z,62.77
2017-09-10T14:58:11.545Z,62.68
2017-09-10T14:59:11.609Z,63.64
2017-09-10T15:01:04.623Z,63.41
2017-09-10T15:02:04.668Z,63.99
2017-09-10T15:03:57.670Z,64.37
2017-09-10T15:04:57.763Z,63.79
2017-09-10T15:06:50.750Z,63.89
2017-09-10T15:07:50.794Z,63.99
2017-09-10T15:09:43.789Z,63.89
2017-09-10T15:10:43.855Z,64.09
2017-09-10T15:12:36.871Z,64.18
2017-09-10T15:13:36.920Z,63.32
2017-09-10T15:15:29.929Z,63.60
2017-09-10T15:16:29.974Z,63.51
2017-09-10T15:18:22.970Z,62.74
2017-09-10T15:19:23.050Z,61.68
2017-09-10T15:21:16.058Z,61.78
2017-09-10T15:22:16.094Z,61.58
2017-09-10T15:24:09.092Z,63.41
2017-09-10T15:25:09.160Z,63.60
2017-09-10T15:27:02.177Z,61.78
2017-09-10T15:28:02.222Z,61.68
2017-09-10T15:29:55.214Z,61.97
2017-09-10T15:30:55.280Z,61.78
2017-09-10T15:32:48.298Z,62.74
2017-09-10T15:33:48.342Z,62.55
2017-09-10T15:35:41.377Z,62.74
2017-09-10T15:36:41.405Z,63.12
2017-09-10T15:38:34.413Z,63.22
2017-09-10T15:39:34.497Z,63.32
2017-09-10T15:41:27.507Z,63.22
2017-09-10T15:42:27.540Z,63.51
2017-09-10T15:44:20.536Z,63.02
2017-09-10T15:45:20.618Z,64.28
2017-09-10T15:47:13.626Z,62.74
2017-09-10T15:48:13.669Z,63.41
2017-09-10T15:50:06.664Z,64.28
2017-09-10T15:51:06.725Z,63.51
2017-09-10T15:52:59.741Z,64.37
2017-09-10T15:53:59.786Z,64.28
2017-09-10T15:55:52.811Z,63.41
2017-09-10T15:56:52.867Z,64.37
2017-09-10T15:58:45.844Z,65.05
2017-09-10T15:59:45.906Z,64.95
2017-09-10T16:01:38.923Z,64.72
2017-09-10T16:02:38.972Z,64.95
2017-09-10T16:04:31.961Z,64.56
2017-09-10T16:05:32.026Z,65.14
2017-09-10T16:07:25.049Z,64.95
2017-09-10T16:08:25.094Z,64.95
2017-09-10T16:10:18.146Z,63.99
2017-09-10T16:11:18.170Z,64.95
2017-09-10T16:13:11.169Z,65.33
2017-09-10T16:14:11.245Z,65.14
2017-09-10T16:16:04.262Z,65.11
2017-09-10T16:17:04.303Z,65.14
2017-09-10T16:18:57.300Z,66.16
2017-09-10T16:19:57.366Z,66.64
2017-09-10T16:21:50.389Z,67.13
2017-09-10T16:22:50.433Z,66.84
2017-09-10T16:24:43.439Z,67.41
2017-09-10T16:25:43.493Z,67.13
2017-09-10T16:27:36.517Z,67.90
2017-09-10T16:28:36.555Z,67.51
2017-09-10T16:30:29.595Z,67.80
2017-09-10T16:31:29.624Z,67.70
2017-09-10T16:33:22.631Z,67.70
2017-09-10T16:34:22.692Z,67.61
2017-09-10T16:36:15.713Z,67.70
2017-09-10T16:37:15.770Z,66.26
2017-09-10T16:39:08.760Z,65.65
2017-09-10T16:40:08.828Z,65.40
2017-09-10T16:42:01.849Z,66.03
2017-09-10T16:43:01.892Z,66.52
2017-09-10T16:44:54.887Z,66.13
2017-09-10T16:45:54.958Z,66.52
2017-09-10T16:47:47.976Z,66.23
2017-09-10T16:48:48.020Z,66.80
2017-09-10T16:50:41.051Z,67.38
2017-09-10T16:51:41.100Z,67.76
2017-09-10T16:53:34.095Z,67.29
2017-09-10T16:54:34.153Z,67.67
2017-09-10T16:56:27.165Z,68.15
2017-09-10T16:57:27.213Z,67.96
2017-09-10T16:59:20.207Z,68.05
2017-09-10T17:00:20.276Z,68.15
2017-09-10T17:02:13.285Z,67.73
2017-09-10T17:03:13.329Z,67.73
2017-09-10T17:05:06.325Z,67.83
2017-09-10T17:06:06.392Z,68.79
2017-09-10T17:07:59.405Z,67.92
2017-09-10T17:08:59.458Z,68.21
2017-09-10T17:10:52.476Z,67.73
2017-09-10T17:11:52.516Z,67.73
2017-09-10T17:13:45.519Z,68.69
2017-09-10T17:14:45.580Z,68.50
2017-09-10T17:16:38.598Z,68.98
2017-09-10T17:17:38.643Z,67.92
2017-09-10T17:19:31.634Z,68.46
2017-09-10T17:20:31.702Z,68.27
2017-09-10T17:22:24.746Z,68.46
2017-09-10T17:23:24.756Z,68.56
2017-09-10T17:25:17.747Z,68.75
2017-09-10T17:26:17.817Z,68.66
2017-09-10T17:28:10.831Z,67.99
2017-09-10T17:29:10.881Z,68.18
2017-09-10T17:31:03.891Z,68.95
2017-09-10T17:32:03.932Z,68.37
2017-09-10T17:33:56.927Z,68.75
2017-09-10T17:34:56.990Z,68.66
2017-09-10T17:36:50.005Z,68.95
2017-09-10T17:37:50.047Z,69.04
2017-09-10T17:39:43.039Z,69.81
2017-09-10T17:40:43.103Z,68.85
2017-09-10T17:42:36.117Z,69.96
2017-09-10T17:43:36.163Z,70.09
2017-09-10T17:45:29.155Z,69.77
2017-09-10T17:46:29.217Z,69.58
2017-09-10T17:48:22.239Z,70.15
2017-09-10T17:49:22.277Z,69.87
2017-09-10T17:51:15.297Z,69.68
2017-09-10T17:52:15.335Z,70.06
2017-09-10T17:54:08.331Z,69.77
2017-09-10T17:55:08.386Z,69.96
2017-09-10T17:57:01.401Z,70.15
2017-09-10T17:58:01.446Z,70.06
2017-09-10T17:59:54.447Z,69.39
2017-09-10T18:00:54.504Z,69.77
2017-09-10T18:02:47.520Z,69.58
2017-09-10T18:03:47.561Z,69.96
2017-09-10T18:05:40.564Z,69.96
2017-09-10T18:06:40.647Z,69.77
2017-09-10T18:08:33.642Z,69.87
2017-09-10T18:09:33.686Z,70.12
2017-09-10T18:11:26.672Z,71.17
2017-09-10T18:12:26.743Z,70.70
2017-09-10T18:14:19.748Z,71.08
2017-09-10T18:15:19.792Z,71.66
2017-09-10T18:17:12.814Z,71.94
2017-09-10T18:18:12.860Z,72.03
2017-09-10T18:20:06.359Z,72.13
2017-09-10T18:21:06.419Z,72.71
2017-09-10T18:22:59.442Z,73.09
2017-09-10T18:23:59.482Z,72.99
2017-09-10T18:25:52.493Z,73.72
2017-09-10T18:26:52.544Z,73.54
2017-09-10T18:28:45.561Z,73.72
2017-09-10T18:29:45.608Z,73.24
2017-09-10T18:31:38.602Z,73.54
2017-09-10T18:32:38.666Z,73.82
2017-09-10T18:34:31.679Z,73.28